Terminal Aerodrome Forecast
Issued by NWS

Home | Current Version | Previous Version | Graphics & Text | Print | Product List | Glossary On
Versions: 1 2 3 4 5 6 7 8 9 10 11 12 13
000
FTUS43 KICT 230537
TAFRSL
TAF
KRSL 230537Z 2306/2406 30015KT P6SM SCT040 BKN080
     FM230900 31015KT P6SM SCT020 OVC030
     FM231500 34019G29KT P6SM BKN018 OVC030
     FM231900 34023G33KT 5SM -RASN BKN009 OVC020=

USA.gov is the U.S. government's official web portal to all federal, state and local government web resources and services.